createdAt,value
2023-05-03T00:01:59.353Z,102809.59
2023-05-03T00:04:28.692Z,102806.13
2023-05-03T00:06:56.645Z,102800.59
2023-05-03T00:09:24.557Z,102800.78
2023-05-03T00:11:53.452Z,102805.09
2023-05-03T00:14:21.486Z,102805.78
2023-05-03T00:16:49.441Z,102807.34
2023-05-03T00:19:30.491Z,102799.22
2023-05-03T00:22:01.058Z,102806.47
2023-05-03T00:24:28.955Z,102807.50
2023-05-03T00:26:56.849Z,102804.03
2023-05-03T00:29:24.811Z,102815.16
2023-05-03T00:31:52.687Z,102816.34
2023-05-03T00:34:20.903Z,102819.66
2023-05-03T00:36:48.789Z,102816.00
2023-05-03T00:39:18.167Z,102817.13
2023-05-03T00:41:46.070Z,102818.88
2023-05-03T00:44:13.963Z,102814.09
2023-05-03T00:46:41.963Z,102813.75
2023-05-03T00:49:10.484Z,102817.91
2023-05-03T00:51:38.462Z,102813.41
2023-05-03T00:54:06.428Z,102807.50
2023-05-03T00:56:47.834Z,102814.97
2023-05-03T00:59:19.709Z,102815.13
2023-05-03T01:01:49.696Z,102810.63
2023-05-03T01:04:18.522Z,102809.25
2023-05-03T01:06:52.569Z,102803.69
2023-05-03T01:09:24.459Z,102811.59
2023-05-03T01:12:02.924Z,102818.44
2023-05-03T01:14:37.856Z,102820.84
2023-05-03T01:17:10.437Z,102822.38
2023-05-03T01:19:41.276Z,102819.88
2023-05-03T01:22:17.356Z,102815.53
2023-05-03T01:24:47.503Z,102816.28
2023-05-03T01:27:16.749Z,102823.69
2023-05-03T01:29:44.915Z,102822.53
2023-05-03T01:32:17.037Z,102827.97
2023-05-03T01:34:51.617Z,102825.78
2023-05-03T01:37:19.755Z,102826.06
2023-05-03T01:39:51.874Z,102823.22
2023-05-03T01:42:21.994Z,102827.69
2023-05-03T01:44:51.002Z,102828.00
2023-05-03T01:47:18.944Z,102829.63
2023-05-03T01:49:46.825Z,102825.84
2023-05-03T01:52:14.940Z,102835.69
2023-05-03T01:54:42.838Z,102833.94
2023-05-03T01:57:10.776Z,102826.53
2023-05-03T01:59:40.111Z,102825.72
2023-05-03T02:02:08.023Z,102829.25
2023-05-03T02:04:35.997Z,102820.78
2023-05-03T02:07:03.972Z,102834.53
2023-05-03T02:09:31.873Z,102828.59
2023-05-03T02:11:59.774Z,102829.91
2023-05-03T02:14:27.740Z,102834.69
2023-05-03T02:16:57.078Z,102838.03
2023-05-03T02:19:25.110Z,102840.88
2023-05-03T02:21:53.014Z,102847.72
2023-05-03T02:24:21.190Z,102841.66
2023-05-03T02:26:49.073Z,102848.13
2023-05-03T02:29:17.108Z,102841.59
2023-05-03T02:31:44.989Z,102852.19
2023-05-03T02:34:14.345Z,102848.56
2023-05-03T02:36:42.231Z,102846.53
2023-05-03T02:39:10.733Z,102849.03
2023-05-03T02:41:38.653Z,102845.56
2023-05-03T02:44:06.575Z,102845.56
2023-05-03T02:46:34.488Z,102852.72
2023-05-03T02:49:02.475Z,102851.47
2023-05-03T02:51:32.533Z,102846.81
2023-05-03T02:54:00.574Z,102854.66
2023-05-03T02:56:28.551Z,102856.34
2023-05-03T02:58:56.462Z,102860.72
2023-05-03T03:01:24.566Z,102855.53
2023-05-03T03:03:52.687Z,102852.75
2023-05-03T03:06:21.034Z,102856.78
2023-05-03T03:08:50.368Z,102854.19
2023-05-03T03:11:18.771Z,102854.47
2023-05-03T03:13:46.647Z,102854.75
2023-05-03T03:16:14.631Z,102858.59
2023-05-03T03:18:42.534Z,102851.00
2023-05-03T03:21:10.477Z,102842.41
2023-05-03T03:23:38.373Z,102850.66
2023-05-03T03:26:07.709Z,102844.09
2023-05-03T03:28:35.583Z,102854.47
2023-05-03T03:31:03.543Z,102846.16
2023-05-03T03:33:31.420Z,102844.94
2023-05-03T03:35:59.319Z,102859.03
2023-05-03T03:38:27.599Z,102854.53
2023-05-03T03:40:55.556Z,102850.19
2023-05-03T03:43:24.926Z,102849.84
2023-05-03T03:45:52.844Z,102853.81
2023-05-03T03:48:20.858Z,102849.97
2023-05-03T03:50:48.897Z,102844.09
2023-05-03T03:53:16.792Z,102845.88
2023-05-03T03:55:44.746Z,102847.59
2023-05-03T03:58:12.720Z,102842.75
2023-05-03T04:00:42.808Z,102847.56
2023-05-03T04:03:11.135Z,102844.09
2023-05-03T04:05:39.101Z,102848.16
2023-05-03T04:08:07.290Z,102844.59
2023-05-03T04:10:35.257Z,102843.72
2023-05-03T04:13:03.215Z,102838.28
2023-05-03T04:15:31.115Z,102846.66
2023-05-03T04:18:00.586Z,102847.03
2023-05-03T04:20:29.389Z,102843.91
2023-05-03T04:22:57.302Z,102860.19
2023-05-03T04:25:25.708Z,102859.13
2023-05-03T04:27:53.805Z,102851.19
2023-05-03T04:30:22.056Z,102851.50
2023-05-03T04:32:49.973Z,102851.38
2023-05-03T04:35:20.057Z,102857.44
2023-05-03T04:37:48.052Z,102862.97
2023-05-03T04:40:17.299Z,102863.50
2023-05-03T04:42:45.452Z,102850.50
2023-05-03T04:45:14.575Z,102857.78
2023-05-03T04:47:43.269Z,102863.31
2023-05-03T04:50:12.350Z,102874.22
2023-05-03T04:52:41.751Z,102873.53
2023-05-03T04:55:10.650Z,102873.03
2023-05-03T04:57:38.513Z,102867.66
2023-05-03T05:00:11.301Z,102874.25
2023-05-03T05:02:39.341Z,102884.50
2023-05-03T05:05:09.124Z,102877.22
2023-05-03T05:07:37.031Z,102880.00
2023-05-03T05:10:07.506Z,102890.75
2023-05-03T05:12:35.448Z,102887.28
2023-05-03T05:15:04.297Z,102880.53
2023-05-03T05:17:32.300Z,102883.81
2023-05-03T05:20:00.633Z,102886.09
2023-05-03T05:22:28.731Z,102886.25
2023-05-03T05:24:57.093Z,102887.13
2023-05-03T05:27:27.072Z,102886.41
2023-05-03T05:29:55.010Z,102884.19
2023-05-03T05:32:23.121Z,102894.75
2023-05-03T05:34:55.247Z,102897.00
2023-05-03T05:37:23.376Z,102896.31
2023-05-03T05:39:51.368Z,102899.75
2023-05-03T05:42:19.311Z,102893.84
2023-05-03T05:44:48.582Z,102902.38
2023-05-03T05:47:16.679Z,102905.13
2023-05-03T05:49:44.876Z,102897.84
2023-05-03T05:52:12.848Z,102911.88
2023-05-03T05:54:40.742Z,102908.38
2023-05-03T05:57:08.864Z,102913.22
2023-05-03T05:59:36.751Z,102918.41
2023-05-03T06:02:06.144Z,102913.00
2023-05-03T06:04:34.097Z,102918.25
2023-05-03T06:07:01.994Z,102918.56
2023-05-03T06:09:29.857Z,102919.06
2023-05-03T06:11:57.756Z,102926.31
2023-05-03T06:14:25.744Z,102926.31
2023-05-03T06:16:54.129Z,102920.09
2023-05-03T06:19:24.531Z,102924.25
2023-05-03T06:21:52.429Z,102930.81
2023-05-03T06:24:21.521Z,102931.09
2023-05-03T06:26:49.708Z,102932.91
2023-05-03T06:29:18.280Z,102936.91
2023-05-03T06:31:46.529Z,102944.38
2023-05-03T06:34:14.471Z,102944.63
2023-05-03T06:36:43.716Z,102941.50
2023-05-03T06:39:11.662Z,102935.41
2023-05-03T06:41:39.568Z,102932.22
2023-05-03T06:44:08.200Z,102926.53
2023-05-03T06:46:36.207Z,102924.34
2023-05-03T06:49:04.259Z,102936.09
2023-05-03T06:51:33.187Z,102934.56
2023-05-03T06:54:07.074Z,102932.59
2023-05-03T06:56:35.255Z,102932.50
2023-05-03T06:59:03.587Z,102929.25
2023-05-03T07:01:32.139Z,102937.44
2023-05-03T07:04:00.534Z,102940.34
2023-05-03T07:06:28.533Z,102940.28
2023-05-03T07:08:56.432Z,102934.59
2023-05-03T07:11:25.821Z,102952.84
2023-05-03T07:13:54.051Z,102957.16
2023-05-03T07:16:22.114Z,102956.41
2023-05-03T07:18:50.483Z,102957.88
2023-05-03T07:21:18.412Z,102946.25
2023-05-03T07:23:46.326Z,102950.00
2023-05-03T07:26:14.287Z,102954.13
2023-05-03T07:28:43.646Z,102947.69
2023-05-03T07:31:12.171Z,102949.03
2023-05-03T07:33:40.450Z,102953.06
2023-05-03T07:36:08.846Z,102951.06
2023-05-03T07:38:37.342Z,102952.34
2023-05-03T07:41:05.331Z,102958.78
2023-05-03T07:43:33.248Z,102953.94
2023-05-03T07:46:02.639Z,102954.44
2023-05-03T07:48:30.872Z,102945.78
2023-05-03T07:50:58.848Z,102947.78
2023-05-03T07:53:26.804Z,102954.84
2023-05-03T07:55:56.819Z,102943.09
2023-05-03T07:58:38.882Z,102943.66
2023-05-03T08:01:09.640Z,102948.28
2023-05-03T08:03:37.670Z,102940.38
2023-05-03T08:06:06.004Z,102946.53
2023-05-03T08:08:34.012Z,102946.84
2023-05-03T08:11:01.923Z,102950.59
2023-05-03T08:13:29.829Z,102952.13
2023-05-03T08:15:57.904Z,102958.34
2023-05-03T08:18:27.613Z,102950.56
2023-05-03T08:20:55.787Z,102955.47
2023-05-03T08:23:23.894Z,102956.88
2023-05-03T08:25:52.178Z,102954.31
2023-05-03T08:28:20.106Z,102955.38
2023-05-03T08:30:48.236Z,102952.31
2023-05-03T08:33:16.161Z,102957.28
2023-05-03T08:35:46.843Z,102950.69
2023-05-03T08:38:16.426Z,102948.75
2023-05-03T08:40:44.990Z,102941.53
2023-05-03T08:43:14.657Z,102954.63
2023-05-03T08:45:42.678Z,102953.44
2023-05-03T08:48:10.702Z,102960.19
2023-05-03T08:50:42.401Z,102955.03
2023-05-03T08:53:12.035Z,102959.69
2023-05-03T08:55:40.355Z,102958.50
2023-05-03T08:58:10.500Z,102952.09
2023-05-03T09:00:38.509Z,102962.69
2023-05-03T09:03:06.507Z,102964.22
2023-05-03T09:05:35.888Z,102961.66
2023-05-03T09:08:04.952Z,102966.47
2023-05-03T09:10:34.863Z,102965.00
2023-05-03T09:13:03.738Z,102965.59
2023-05-03T09:15:32.073Z,102965.41
2023-05-03T09:18:10.726Z,102965.88
2023-05-03T09:20:40.269Z,102971.63
2023-05-03T09:23:08.884Z,102971.91
2023-05-03T09:25:48.156Z,102970.22
2023-05-03T09:28:17.103Z,102971.84
2023-05-03T09:30:45.626Z,102970.00
2023-05-03T09:33:19.298Z,102967.66
2023-05-03T09:35:57.550Z,102971.16
2023-05-03T09:38:28.144Z,102974.06
2023-05-03T09:40:57.648Z,102965.69
2023-05-03T09:43:25.568Z,102976.59
2023-05-03T09:45:53.559Z,102974.47
2023-05-03T09:48:23.655Z,102973.91
2023-05-03T09:50:52.402Z,102978.19
2023-05-03T09:53:21.464Z,102974.03
2023-05-03T09:55:51.052Z,102974.47
2023-05-03T09:58:21.811Z,102969.28
2023-05-03T10:00:52.596Z,102967.50
2023-05-03T10:03:25.695Z,102965.84
2023-05-03T10:05:54.336Z,102972.00
2023-05-03T10:08:27.324Z,102965.44
2023-05-03T10:10:55.367Z,102964.03
2023-05-03T10:13:24.801Z,102970.59
2023-05-03T10:15:55.732Z,102958.44
2023-05-03T10:18:25.221Z,102956.88
2023-05-03T10:20:58.323Z,102955.59
2023-05-03T10:23:27.280Z,102938.72
2023-05-03T10:26:17.199Z,102950.50
2023-05-03T10:28:47.112Z,102941.38
2023-05-03T10:31:47.044Z,102947.50
2023-05-03T10:34:22.200Z,102949.00
2023-05-03T10:36:52.630Z,102950.09
2023-05-03T10:39:20.994Z,102940.25
2023-05-03T10:41:59.668Z,102949.94
2023-05-03T10:44:30.738Z,102946.31
2023-05-03T10:46:58.772Z,102938.72
2023-05-03T10:49:27.534Z,102949.25
2023-05-03T10:51:55.708Z,102946.78
2023-05-03T10:54:24.280Z,102945.03
2023-05-03T10:56:57.205Z,102951.56
2023-05-03T10:59:26.106Z,102958.81
2023-05-03T11:01:56.938Z,102950.22
2023-05-03T11:04:35.219Z,102947.19
2023-05-03T11:07:04.762Z,102947.66
2023-05-03T11:09:34.221Z,102950.59
2023-05-03T11:12:06.875Z,102948.56
2023-05-03T11:14:34.918Z,102950.69
2023-05-03T11:17:04.708Z,102944.94
2023-05-03T11:19:32.866Z,102945.44
2023-05-03T11:22:00.777Z,102948.25
2023-05-03T11:24:29.449Z,102951.44
2023-05-03T11:26:57.810Z,102945.56
2023-05-03T11:29:26.480Z,102944.41
2023-05-03T11:31:54.782Z,102943.25
2023-05-03T11:34:24.381Z,102950.75
2023-05-03T11:36:52.681Z,102953.84
2023-05-03T11:39:21.685Z,102947.78
2023-05-03T11:42:04.897Z,102940.22
2023-05-03T11:44:32.993Z,102947.97
2023-05-03T11:47:01.640Z,102941.13
2023-05-03T11:49:31.609Z,102946.34
2023-05-03T11:51:59.603Z,102943.78
2023-05-03T11:54:28.411Z,102941.25
2023-05-03T11:57:00.185Z,102939.84
2023-05-03T11:59:38.676Z,102933.31
2023-05-03T12:02:09.526Z,102940.16
2023-05-03T12:04:42.912Z,102928.13
2023-05-03T12:07:14.684Z,102939.00
2023-05-03T12:09:55.299Z,102935.31
2023-05-03T12:12:32.469Z,102938.31
2023-05-03T12:15:07.803Z,102928.03
2023-05-03T12:17:38.713Z,102936.41
2023-05-03T12:21:26.289Z,102928.00
2023-05-03T12:23:15.553Z,102921.75
2023-05-03T12:25:44.637Z,102924.97
2023-05-03T12:28:20.181Z,102920.84
2023-05-03T12:30:48.816Z,102923.66
2023-05-03T12:33:21.934Z,102915.09
2023-05-03T12:35:54.249Z,102920.00
2023-05-03T12:38:24.467Z,102923.13
2023-05-03T12:40:53.676Z,102914.72
2023-05-03T12:43:21.946Z,102911.34
2023-05-03T12:45:55.856Z,102903.53
2023-05-03T12:48:37.951Z,102902.47
2023-05-03T12:51:19.192Z,102902.88
2023-05-03T12:53:54.145Z,102906.28
2023-05-03T12:56:24.896Z,102906.22
2023-05-03T12:59:15.049Z,102893.41
2023-05-03T13:06:47.017Z,102897.56
2023-05-03T13:09:20.455Z,102896.38
2023-05-03T13:11:50.008Z,102884.47
2023-05-03T13:14:18.274Z,102891.34
2023-05-03T13:16:46.763Z,102883.88
2023-05-03T13:19:14.987Z,102884.53
2023-05-03T13:21:43.211Z,102874.63
2023-05-03T13:24:12.493Z,102875.63
2023-05-03T13:26:40.548Z,102869.69
2023-05-03T13:29:08.445Z,102864.28
2023-05-03T13:31:36.425Z,102862.34
2023-05-03T13:34:04.308Z,102865.56
2023-05-03T13:36:33.426Z,102853.31
2023-05-03T13:39:02.001Z,102851.06
2023-05-03T13:41:31.565Z,102846.91
2023-05-03T13:43:59.485Z,102849.00
2023-05-03T13:46:27.529Z,102848.16
2023-05-03T13:48:56.512Z,102847.28
2023-05-03T13:51:25.677Z,102845.53
2023-05-03T13:53:53.578Z,102843.06
2023-05-03T13:56:21.678Z,102837.28
2023-05-03T13:58:50.994Z,102832.16
2023-05-03T14:01:19.271Z,102834.28
2023-05-03T14:03:47.357Z,102828.06
2023-05-03T14:06:15.391Z,102823.50
2023-05-03T14:08:43.277Z,102814.25
2023-05-03T14:11:14.463Z,102809.50
2023-05-03T14:13:55.678Z,102818.47
2023-05-03T14:16:39.966Z,102810.97
2023-05-03T14:19:10.557Z,102805.00
2023-05-03T14:21:38.864Z,102806.38
2023-05-03T14:24:07.570Z,102802.34
2023-05-03T14:26:35.471Z,102817.31
2023-05-03T14:29:04.234Z,102818.34
2023-05-03T14:31:34.258Z,102806.50
2023-05-03T14:34:02.302Z,102813.63
2023-05-03T14:36:34.907Z,102809.06
2023-05-03T14:39:03.146Z,102811.75
2023-05-03T14:41:32.085Z,102804.41
2023-05-03T14:44:00.005Z,102807.75
2023-05-03T14:46:27.974Z,102799.16
2023-05-03T14:48:57.393Z,102805.66
2023-05-03T14:51:25.410Z,102798.44
2023-05-03T14:53:53.315Z,102803.91
2023-05-03T14:56:21.236Z,102800.50
2023-05-03T14:58:49.121Z,102791.16
2023-05-03T15:01:20.587Z,102795.97
2023-05-03T15:03:48.636Z,102791.28
2023-05-03T15:06:24.027Z,102790.56
2023-05-03T15:08:52.378Z,102789.69
2023-05-03T15:11:20.302Z,102790.56
2023-05-03T15:13:48.404Z,102793.63
2023-05-03T15:16:16.518Z,102796.66
2023-05-03T15:18:48.182Z,102785.25
2023-05-03T15:21:21.217Z,102784.03
2023-05-03T15:23:49.581Z,102776.75
2023-05-03T15:26:17.732Z,102780.69
2023-05-03T15:28:45.743Z,102773.31
2023-05-03T15:31:14.170Z,102775.78
2023-05-03T15:33:43.134Z,102782.50
2023-05-03T15:36:12.022Z,102776.66
2023-05-03T15:38:41.912Z,102776.66
2023-05-03T15:41:09.816Z,102773.31
2023-05-03T15:44:24.626Z,102782.44
2023-05-03T15:46:52.552Z,102781.44
2023-05-03T15:49:20.509Z,102770.69
2023-05-03T15:51:48.404Z,102773.41
2023-05-03T15:54:17.690Z,102769.31
2023-05-03T15:56:53.995Z,102777.75
2023-05-03T15:59:21.892Z,102765.59
2023-05-03T16:01:49.914Z,102765.66
2023-05-03T16:04:17.898Z,102768.78
2023-05-03T16:06:45.815Z,102767.78
2023-05-03T16:09:14.458Z,102760.41
2023-05-03T16:11:43.761Z,102756.66
2023-05-03T16:14:12.125Z,102752.25
2023-05-03T16:16:40.363Z,102753.84
2023-05-03T16:19:08.875Z,102756.25
2023-05-03T16:21:36.848Z,102746.97
2023-05-03T16:24:05.300Z,102747.00
2023-05-03T16:26:34.587Z,102749.41
2023-05-03T16:29:03.900Z,102744.09
2023-05-03T16:31:32.230Z,102753.00
2023-05-03T16:34:00.370Z,102756.78
2023-05-03T16:36:28.281Z,102745.78
2023-05-03T16:38:56.231Z,102748.50
2023-05-03T16:41:24.629Z,102748.84
2023-05-03T16:43:52.919Z,102744.91
2023-05-03T16:46:22.927Z,102739.22
2023-05-03T16:48:51.904Z,102743.63
2023-05-03T16:51:21.797Z,102735.06
2023-05-03T16:53:49.694Z,102737.84
2023-05-03T16:56:17.575Z,102735.34
2023-05-03T16:58:45.786Z,102740.63
2023-05-03T17:01:15.444Z,102745.75
2023-05-03T17:03:44.846Z,102742.44
2023-05-03T17:06:13.144Z,102744.94
2023-05-03T17:08:41.269Z,102735.16
2023-05-03T17:11:13.963Z,102734.53
2023-05-03T17:13:42.078Z,102725.34
2023-05-03T17:16:11.525Z,102724.31
2023-05-03T17:18:40.655Z,102726.00
2023-05-03T17:21:10.320Z,102714.38
2023-05-03T17:23:39.527Z,102723.34
2023-05-03T17:26:09.304Z,102722.25
2023-05-03T17:28:37.657Z,102718.00
2023-05-03T17:31:06.452Z,102716.81
2023-05-03T17:33:35.004Z,102714.13
2023-05-03T17:36:04.939Z,102712.88
2023-05-03T17:38:35.595Z,102703.19
2023-05-03T17:41:07.417Z,102707.16
2023-05-03T17:43:35.740Z,102706.31
2023-05-03T17:46:08.919Z,102706.53
2023-05-03T17:48:39.319Z,102713.03
2023-05-03T17:51:08.225Z,102706.03
2023-05-03T17:53:37.548Z,102708.16
2023-05-03T17:56:05.704Z,102712.91
2023-05-03T17:58:33.612Z,102708.34
2023-05-03T18:01:01.513Z,102712.13
2023-05-03T18:03:29.499Z,102708.84
2023-05-03T18:05:57.502Z,102722.88
2023-05-03T18:08:25.435Z,102723.38
2023-05-03T18:10:54.743Z,102721.28
2023-05-03T18:13:22.877Z,102724.81
2023-05-03T18:15:51.238Z,102719.03
2023-05-03T18:18:19.222Z,102715.94
2023-05-03T18:20:47.121Z,102723.38
2023-05-03T18:23:15.540Z,102719.47
2023-05-03T18:25:46.119Z,102718.19
2023-05-03T18:28:15.398Z,102722.97
2023-05-03T18:30:43.528Z,102718.69
2023-05-03T18:33:12.075Z,102719.53
2023-05-03T18:35:40.262Z,102722.16
2023-05-03T18:38:08.218Z,102723.91
2023-05-03T18:40:36.140Z,102723.91
2023-05-03T18:43:04.200Z,102724.34
2023-05-03T18:45:33.476Z,102722.66
2023-05-03T18:48:01.407Z,102723.09
2023-05-03T18:50:29.334Z,102717.03
2023-05-03T18:52:57.207Z,102724.16
2023-05-03T18:55:25.520Z,102719.41
2023-05-03T18:57:53.400Z,102722.66
2023-05-03T19:00:21.720Z,102730.84
2023-05-03T19:02:51.064Z,102728.25
2023-05-03T19:05:19.186Z,102728.88
2023-05-03T19:07:47.793Z,102727.56
2023-05-03T19:10:54.064Z,102727.38
2023-05-03T19:13:22.055Z,102727.75
2023-05-03T19:15:50.094Z,102724.94
2023-05-03T19:18:19.363Z,102736.38
2023-05-03T19:20:47.263Z,102743.63
2023-05-03T19:23:15.196Z,102742.75
2023-05-03T19:25:43.200Z,102748.09
2023-05-03T19:28:11.806Z,102738.56
2023-05-03T19:30:41.424Z,102752.94
2023-05-03T19:33:09.410Z,102749.69
2023-05-03T19:35:40.608Z,102747.31
2023-05-03T19:38:08.670Z,102749.81
2023-05-03T19:40:36.963Z,102747.09
2023-05-03T19:43:04.851Z,102746.34
2023-05-03T19:45:32.813Z,102738.50
2023-05-03T19:48:00.895Z,102749.41
2023-05-03T19:50:28.974Z,102736.78
2023-05-03T19:52:58.265Z,102742.66
2023-05-03T19:55:26.164Z,102731.47
2023-05-03T19:57:54.257Z,102733.34
2023-05-03T20:00:24.330Z,102742.13
2023-05-03T20:02:52.274Z,102743.63
2023-05-03T20:05:20.464Z,102743.50
2023-05-03T20:07:49.154Z,102742.13
2023-05-03T20:10:18.704Z,102735.72
2023-05-03T20:12:46.606Z,102737.44
2023-05-03T20:15:14.735Z,102737.44
2023-05-03T20:17:42.690Z,102741.03
2023-05-03T20:20:12.143Z,102744.19
2023-05-03T20:22:40.660Z,102752.50
2023-05-03T20:25:09.605Z,102751.59
2023-05-03T20:27:38.912Z,102749.41
2023-05-03T20:30:08.393Z,102753.19
2023-05-03T20:32:37.098Z,102752.03
2023-05-03T20:35:05.986Z,102761.41
2023-05-03T20:37:35.377Z,102763.03
2023-05-03T20:40:04.662Z,102760.66
2023-05-03T20:42:32.868Z,102754.41
2023-05-03T20:45:02.146Z,102759.53
2023-05-03T20:47:30.036Z,102758.59
2023-05-03T20:49:57.954Z,102759.66
2023-05-03T20:52:25.952Z,102759.38
2023-05-03T20:54:53.879Z,102761.03
2023-05-03T20:57:21.784Z,102757.13
2023-05-03T20:59:49.948Z,102757.69
2023-05-03T21:02:19.220Z,102746.28
2023-05-03T21:04:47.143Z,102747.91
2023-05-03T21:07:15.036Z,102749.19
2023-05-03T21:09:42.917Z,102756.41
2023-05-03T21:12:10.837Z,102754.97
2023-05-03T21:14:38.720Z,102752.69
2023-05-03T21:17:08.850Z,102748.66
2023-05-03T21:19:39.404Z,102748.00
2023-05-03T21:22:08.569Z,102754.69
2023-05-03T21:24:36.643Z,102755.56
2023-05-03T21:27:04.602Z,102750.38
2023-05-03T21:29:32.508Z,102750.47
2023-05-03T21:32:00.615Z,102745.56
2023-05-03T21:34:28.700Z,102749.13
2023-05-03T21:36:57.952Z,102747.38
2023-05-03T21:39:26.007Z,102752.03
2023-05-03T21:41:54.438Z,102745.84
2023-05-03T21:44:22.403Z,102746.63
2023-05-03T21:46:50.408Z,102746.56
2023-05-03T21:49:18.393Z,102746.25
2023-05-03T21:51:46.300Z,102747.41
2023-05-03T21:54:16.137Z,102737.88
2023-05-03T21:56:44.087Z,102741.75
2023-05-03T21:59:11.994Z,102735.88
2023-05-03T22:01:40.366Z,102737.13
2023-05-03T22:04:08.695Z,102729.34
2023-05-03T22:06:37.867Z,102732.22
2023-05-03T22:09:06.936Z,102724.56
2023-05-03T22:11:36.302Z,102730.50
2023-05-03T22:14:08.475Z,102730.88
2023-05-03T22:16:37.461Z,102728.94
2023-05-03T22:19:05.600Z,102720.97
2023-05-03T22:21:33.516Z,102723.97
2023-05-03T22:24:01.480Z,102719.91
2023-05-03T22:26:29.737Z,102717.97
2023-05-03T22:28:59.044Z,102713.75
2023-05-03T22:31:27.550Z,102714.00
2023-05-03T22:33:55.474Z,102714.72
2023-05-03T22:36:23.475Z,102711.94
2023-05-03T22:38:55.083Z,102713.13
2023-05-03T22:41:23.141Z,102713.19
2023-05-03T22:43:51.037Z,102709.56
2023-05-03T22:46:20.673Z,102702.19
2023-05-03T22:48:48.658Z,102704.63
2023-05-03T22:51:16.724Z,102702.19
2023-05-03T22:53:44.707Z,102698.31
2023-05-03T22:56:13.386Z,102706.38
2023-05-03T22:58:41.263Z,102706.63
2023-05-03T23:01:11.589Z,102701.06
2023-05-03T23:03:41.589Z,102698.97
2023-05-03T23:06:09.599Z,102699.91
2023-05-03T23:08:37.610Z,102696.34
2023-05-03T23:11:05.785Z,102694.34
2023-05-03T23:13:33.674Z,102704.03
2023-05-03T23:16:02.444Z,102694.28
2023-05-03T23:18:30.387Z,102692.16
2023-05-03T23:20:59.923Z,102690.78
2023-05-03T23:23:27.980Z,102687.72
2023-05-03T23:25:56.006Z,102682.16
2023-05-03T23:28:24.216Z,102687.41
2023-05-03T23:30:52.466Z,102690.56
2023-05-03T23:33:20.953Z,102688.16
2023-05-03T23:35:50.066Z,102693.91
2023-05-03T23:38:19.484Z,102701.94
2023-05-03T23:40:47.458Z,102686.13
2023-05-03T23:43:15.405Z,102689.28
2023-05-03T23:45:43.427Z,102679.59
2023-05-03T23:48:11.367Z,102685.03
2023-05-03T23:50:39.312Z,102687.59
2023-05-03T23:53:07.384Z,102684.66
2023-05-03T23:55:36.714Z,102684.53
2023-05-03T23:58:04.807Z,102680.69
